Time;durP1;ratioP1;P1;durP2;ratioP2;P2;SDS_P1;SDS_P2;PMS_P1;PMS_P2;Temp;Humidity;BMP_temperature;BMP_pressure;BME280_temperature;BME280_humidity;BME280_pressure;Samples;Min_cycle;Max_cycle;Signal;HPM_P1;HPM_P2
2022/07/03 00:02:18;;;;;;;1.77;1.00;;;18.60;99.90;;;;;;5054845;28;20209;-61
2022/07/03 00:04:45;;;;;;;2.47;1.10;;;18.50;99.90;;;;;;5054421;28;20213;-61
2022/07/03 00:07:11;;;;;;;1.98;1.08;;;18.50;99.90;;;;;;5054529;28;20709;-61
2022/07/03 00:09:38;;;;;;;1.00;0.80;;;18.40;99.90;;;;;;5054815;28;20665;-60
2022/07/03 00:12:06;;;;;;;2.90;1.20;;;18.50;99.90;;;;;;5054298;28;20202;-60
2022/07/03 00:14:34;;;;;;;2.10;1.25;;;18.40;99.90;;;;;;5054237;28;20229;-60
2022/07/03 00:17:00;;;;;;;3.33;1.30;;;18.50;99.90;;;;;;5053369;28;20248;-61
2022/07/03 00:19:27;;;;;;;1.48;1.10;;;18.60;99.90;;;;;;5054449;28;20221;-60
2022/07/03 00:21:57;;;;;;;2.78;1.20;;;18.70;99.90;;;;;;5054270;28;20213;-61
2022/07/03 00:24:27;;;;;;;0.93;0.93;;;18.70;99.90;;;;;;5053919;28;20228;-61
2022/07/03 00:26:54;;;;;;;1.23;1.10;;;18.80;99.90;;;;;;5054062;28;20240;-61
2022/07/03 00:29:23;;;;;;;2.83;1.13;;;18.80;99.90;;;;;;5054002;28;20212;-61
2022/07/03 00:31:51;;;;;;;2.13;1.27;;;18.80;99.90;;;;;;5054361;28;20214;-62
2022/07/03 00:34:18;;;;;;;1.70;1.20;;;18.80;99.90;;;;;;5053221;28;20225;-62
2022/07/03 00:36:48;;;;;;;1.88;1.25;;;18.80;99.90;;;;;;5053777;28;20731;-62
2022/07/03 00:39:14;;;;;;;3.22;1.35;;;18.90;99.90;;;;;;5053635;28;20214;-62
2022/07/03 00:41:44;;;;;;;1.20;1.10;;;18.90;99.90;;;;;;5053879;28;20214;-62
2022/07/03 00:44:11;;;;;;;2.03;0.95;;;18.90;99.90;;;;;;5054054;28;20237;-62
2022/07/03 00:46:39;;;;;;;1.60;1.40;;;18.90;99.90;;;;;;5054868;28;20234;-62
2022/07/03 00:49:10;;;;;;;1.40;1.20;;;18.80;99.90;;;;;;5055371;28;20202;-61
2022/07/03 00:51:40;;;;;;;1.58;1.30;;;18.70;99.90;;;;;;5054615;28;20252;-61
2022/07/03 00:54:09;;;;;;;2.38;1.20;;;18.70;99.90;;;;;;5053814;28;20240;-61
2022/07/03 00:56:40;;;;;;;2.92;1.40;;;18.60;99.90;;;;;;5053483;28;20272;-60
2022/07/03 00:59:07;;;;;;;1.63;1.02;;;18.60;99.90;;;;;;5053979;28;20248;-62
2022/07/03 01:01:38;;;;;;;1.33;1.02;;;18.60;99.90;;;;;;5053576;28;20209;-61
2022/07/03 01:04:32;;;;;;;1.40;1.17;;;18.60;99.90;;;;;;5053099;28;20696;-61
2022/07/03 01:07:07;;;;;;;2.17;1.17;;;18.50;99.90;;;;;;5053194;28;20252;-61
2022/07/03 01:09:47;;;;;;;1.20;1.10;;;18.40;99.90;;;;;;5053508;28;20201;-61
2022/07/03 01:12:24;;;;;;;1.17;1.02;;;18.30;99.90;;;;;;5053236;28;20209;-61
2022/07/03 01:15:00;;;;;;;3.13;1.50;;;18.30;99.90;;;;;;5053336;28;20228;-61
2022/07/03 01:17:32;;;;;;;2.03;1.20;;;18.20;99.90;;;;;;5053232;28;20279;-61
2022/07/03 01:20:03;;;;;;;1.17;1.08;;;18.20;99.90;;;;;;5053023;28;20201;-62
2022/07/03 01:22:33;;;;;;;2.10;1.40;;;18.10;99.90;;;;;;5052770;28;20673;-61
2022/07/03 01:25:25;;;;;;;2.47;1.23;;;18.10;99.90;;;;;;5052832;28;20205;-61
2022/07/03 01:28:10;;;;;;;1.55;1.33;;;18.10;99.90;;;;;;5038156;28;20220;-61
2022/07/03 01:30:39;;;;;;;2.38;1.35;;;17.90;99.90;;;;;;5052889;28;20201;-61
2022/07/03 01:33:08;;;;;;;2.10;1.30;;;17.90;99.90;;;;;;5052737;28;20697;-61
2022/07/03 01:35:36;;;;;;;3.72;1.40;;;17.80;99.90;;;;;;5052772;28;20205;-60
2022/07/03 01:38:07;;;;;;;1.77;1.35;;;17.70;99.90;;;;;;5052902;28;20213;-61
2022/07/03 01:40:36;;;;;;;2.13;1.40;;;17.70;99.90;;;;;;5052906;28;20209;-61
2022/07/03 01:43:04;;;;;;;1.60;1.15;;;17.60;99.90;;;;;;5052554;28;20202;-61
2022/07/03 01:45:37;;;;;;;3.30;1.48;;;17.60;99.90;;;;;;5052568;28;20243;-61
2022/07/03 01:48:06;;;;;;;3.67;1.40;;;17.60;99.90;;;;;;5052753;28;20703;-60
2022/07/03 01:50:33;;;;;;;3.08;1.38;;;17.60;99.90;;;;;;5052775;28;20591;-60
2022/07/03 01:53:03;;;;;;;2.53;1.30;;;17.50;99.90;;;;;;5053027;28;20205;-61
2022/07/03 01:55:32;;;;;;;2.58;1.30;;;17.50;99.90;;;;;;5052469;28;20212;-61
2022/07/03 01:57:59;;;;;;;4.47;1.45;;;17.50;99.90;;;;;;5052834;28;20202;-60
2022/07/03 02:00:28;;;;;;;2.53;1.08;;;17.40;99.90;;;;;;5052666;28;20673;-61
2022/07/03 02:02:59;;;;;;;1.23;1.13;;;17.40;99.90;;;;;;5052243;28;20665;-61
2022/07/03 02:05:39;;;;;;;1.40;1.30;;;17.40;99.90;;;;;;5052639;28;20214;-61
2022/07/03 02:08:18;;;;;;;1.60;1.30;;;17.30;99.90;;;;;;5052368;28;20209;-60
2022/07/03 02:10:52;;;;;;;4.10;1.40;;;17.30;99.90;;;;;;5052332;28;20209;-60
2022/07/03 02:13:24;;;;;;;1.35;1.05;;;17.20;99.90;;;;;;5052238;28;20232;-60
2022/07/03 02:15:52;;;;;;;4.68;1.60;;;17.20;99.90;;;;;;5052368;28;20221;-61
2022/07/03 02:18:28;;;;;;;1.77;1.48;;;17.20;99.90;;;;;;5052457;28;20579;-61
2022/07/03 02:21:03;;;;;;;5.53;1.50;;;17.10;99.90;;;;;;5052294;28;20201;-62
2022/07/03 02:23:33;;;;;;;2.60;1.20;;;17.00;99.90;;;;;;5052517;28;20233;-61
2022/07/03 02:26:04;;;;;;;4.93;1.50;;;16.90;99.90;;;;;;5053833;28;20644;-61
2022/07/03 02:28:41;;;;;;;2.95;1.20;;;16.90;99.90;;;;;;5053521;28;20209;-60
2022/07/03 02:31:10;;;;;;;3.00;1.50;;;17.00;99.90;;;;;;5053296;28;20209;-62
2022/07/03 02:33:41;;;;;;;1.83;1.30;;;17.00;99.90;;;;;;5053142;28;20247;-61
2022/07/03 02:36:12;;;;;;;1.70;1.50;;;17.10;99.90;;;;;;5052915;28;20736;-61
2022/07/03 02:38:41;;;;;;;3.70;1.30;;;17.10;99.90;;;;;;5052868;28;20209;-61
2022/07/03 02:41:13;;;;;;;3.95;1.42;;;17.10;99.90;;;;;;5056637;28;20216;-61
2022/07/03 02:43:55;;;;;;;1.80;1.20;;;17.00;99.90;;;;;;5056468;28;20201;-60
2022/07/03 02:46:49;;;;;;;3.58;1.40;;;17.00;99.90;;;;;;5056227;28;20709;-60
2022/07/03 02:49:40;;;;;;;1.58;1.15;;;16.90;99.90;;;;;;5057328;28;20233;-61
2022/07/03 02:52:14;;;;;;;3.07;1.50;;;16.80;99.90;;;;;;5058040;28;20205;-61
2022/07/03 02:54:46;;;;;;;4.75;1.33;;;16.90;99.90;;;;;;5057526;28;20282;-61
2022/07/03 02:57:15;;;;;;;1.33;1.20;;;16.90;99.90;;;;;;5056290;28;20218;-60
2022/07/03 02:59:53;;;;;;;3.15;1.30;;;16.90;99.90;;;;;;5056030;28;20233;-60
2022/07/03 03:02:33;;;;;;;1.20;1.10;;;16.90;99.90;;;;;;5055637;28;20213;-60
2022/07/03 03:05:06;;;;;;;2.97;1.35;;;16.80;99.90;;;;;;5055719;28;20220;-60
2022/07/03 03:07:36;;;;;;;3.00;1.38;;;16.80;99.90;;;;;;5055790;28;20697;-60
2022/07/03 03:10:03;;;;;;;2.30;1.38;;;16.70;99.90;;;;;;5056477;28;20218;-60
2022/07/03 03:12:32;;;;;;;1.50;1.40;;;16.60;99.90;;;;;;5056400;28;20236;-60
2022/07/03 03:15:03;;;;;;;2.60;1.33;;;16.60;99.90;;;;;;5055485;28;20405;-59
2022/07/03 03:17:40;;;;;;;2.63;1.50;;;16.60;99.90;;;;;;5055828;28;20593;-60
2022/07/03 03:20:10;;;;;;;6.03;1.55;;;16.60;99.90;;;;;;5056052;28;20213;-60
2022/07/03 03:22:59;;;;;;;1.92;1.40;;;16.60;99.90;;;;;;5056455;28;20208;-60
2022/07/03 03:25:26;;;;;;;2.15;1.23;;;16.60;99.90;;;;;;5055761;28;20213;-60
2022/07/03 03:27:53;;;;;;;1.60;1.50;;;16.60;99.90;;;;;;5055371;28;20221;-60
2022/07/03 03:30:20;;;;;;;3.67;1.55;;;16.50;99.90;;;;;;5055578;28;20621;-60
2022/07/03 03:32:47;;;;;;;3.83;1.50;;;16.60;99.90;;;;;;5055625;28;20591;-60
2022/07/03 03:35:16;;;;;;;2.53;1.63;;;16.60;99.90;;;;;;5055413;28;20225;-60
2022/07/03 03:37:43;;;;;;;2.13;1.48;;;16.60;99.90;;;;;;5058149;28;20603;-59
2022/07/03 03:40:12;;;;;;;1.70;1.48;;;16.60;99.90;;;;;;5058172;28;20580;-59
2022/07/03 03:42:39;;;;;;;1.63;1.45;;;16.60;99.90;;;;;;5058354;28;20209;-59
2022/07/03 03:45:06;;;;;;;1.85;1.67;;;16.60;99.90;;;;;;5057686;28;20213;-59
2022/07/03 03:47:33;;;;;;;1.85;1.60;;;16.60;99.90;;;;;;5058636;28;20230;-60
2022/07/03 03:50:00;;;;;;;1.80;1.67;;;16.60;99.90;;;;;;5058806;28;20211;-59
2022/07/03 03:52:29;;;;;;;1.77;1.40;;;16.50;99.90;;;;;;5058520;28;20213;-59
2022/07/03 03:54:56;;;;;;;3.13;1.30;;;16.60;99.90;;;;;;5058291;28;20221;-59
2022/07/03 03:57:25;;;;;;;1.92;1.40;;;16.60;99.90;;;;;;5058740;28;20656;-60
2022/07/03 03:59:52;;;;;;;1.90;1.42;;;16.70;99.90;;;;;;5057693;28;20210;-59
2022/07/03 04:02:20;;;;;;;3.83;1.33;;;16.70;99.90;;;;;;5058404;28;20751;-58
2022/07/03 04:04:46;;;;;;;1.45;1.35;;;16.70;99.90;;;;;;5057509;28;20232;-59
2022/07/03 04:07:13;;;;;;;2.10;1.20;;;16.70;99.90;;;;;;5055544;28;20276;-60
2022/07/03 04:09:41;;;;;;;1.67;1.27;;;16.70;99.90;;;;;;5056016;28;20736;-59
2022/07/03 04:12:09;;;;;;;2.28;1.33;;;16.70;99.90;;;;;;5055285;28;20205;-59
2022/07/03 04:14:36;;;;;;;2.97;1.38;;;16.70;99.90;;;;;;5055108;28;20619;-59
2022/07/03 04:17:03;;;;;;;2.30;1.65;;;16.70;99.90;;;;;;5056020;28;20233;-59
2022/07/03 04:19:30;;;;;;;1.10;1.10;;;16.70;99.90;;;;;;5056382;28;20233;-59
2022/07/03 04:21:56;;;;;;;1.90;1.30;;;16.80;99.90;;;;;;5055375;28;20213;-59
2022/07/03 04:24:24;;;;;;;4.85;1.50;;;16.80;99.90;;;;;;5056238;28;20212;-59
2022/07/03 04:26:52;;;;;;;4.25;1.25;;;16.80;99.90;;;;;;5056914;28;20283;-59
2022/07/03 04:29:19;;;;;;;1.38;1.27;;;16.90;99.90;;;;;;5055182;28;20202;-59
2022/07/03 04:31:45;;;;;;;2.42;1.50;;;17.00;99.90;;;;;;5055293;28;20205;-59
2022/07/03 04:34:13;;;;;;;4.57;1.50;;;17.00;99.90;;;;;;5054856;28;20225;-60
2022/07/03 04:36:39;;;;;;;1.63;1.20;;;17.10;99.90;;;;;;5054894;28;20295;-59
2022/07/03 04:39:06;;;;;;;2.70;1.50;;;17.20;99.90;;;;;;5055047;28;20700;-59
2022/07/03 04:41:33;;;;;;;2.75;1.15;;;17.30;99.90;;;;;;5054972;28;20214;-59
2022/07/03 04:44:01;;;;;;;1.70;1.35;;;17.40;99.90;;;;;;5055858;28;20217;-60
2022/07/03 04:46:28;;;;;;;2.10;1.50;;;17.60;99.90;;;;;;5056095;28;20284;-59
2022/07/03 04:48:55;;;;;;;2.10;1.38;;;17.80;99.90;;;;;;5056942;28;20620;-59
2022/07/03 04:51:21;;;;;;;4.00;1.65;;;18.00;99.90;;;;;;5057082;28;20251;-59
2022/07/03 04:53:48;;;;;;;1.05;0.95;;;18.60;99.90;;;;;;5056210;28;20213;-60
2022/07/03 04:56:15;;;;;;;1.98;1.20;;;19.80;99.90;;;;;;5056305;28;20233;-60
2022/07/03 04:58:42;;;;;;;3.60;1.00;;;21.40;99.90;;;;;;5055912;28;20227;-60
2022/07/03 05:01:10;;;;;;;1.17;1.00;;;23.50;99.90;;;;;;5055875;28;20213;-59
2022/07/03 05:03:36;;;;;;;2.78;0.90;;;25.50;99.90;;;;;;5055267;28;20206;-60
2022/07/03 05:06:03;;;;;;;1.50;1.10;;;27.30;99.90;;;;;;5055786;28;20232;-59
2022/07/03 05:08:30;;;;;;;1.52;1.00;;;28.80;99.90;;;;;;5056016;28;20209;-60
2022/07/03 05:10:57;;;;;;;1.95;1.02;;;30.00;96.70;;;;;;5055450;28;20210;-59
2022/07/03 05:13:24;;;;;;;2.25;1.10;;;30.90;93.00;;;;;;5055303;28;20665;-59
2022/07/03 05:15:51;;;;;;;2.55;1.20;;;31.60;90.30;;;;;;5055410;28;20226;-60
2022/07/03 05:18:19;;;;;;;2.38;0.90;;;32.30;85.90;;;;;;5055137;28;20219;-60
2022/07/03 05:20:45;;;;;;;2.20;1.20;;;32.90;82.10;;;;;;5055323;28;20205;-60
2022/07/03 05:23:12;;;;;;;1.33;1.00;;;33.50;77.60;;;;;;5054629;28;20209;-60
2022/07/03 05:25:39;;;;;;;1.50;0.82;;;33.90;74.40;;;;;;5054773;28;20201;-60
2022/07/03 05:28:06;;;;;;;1.33;1.10;;;34.20;72.30;;;;;;5054351;28;20206;-60
2022/07/03 05:30:33;;;;;;;1.25;0.93;;;34.70;69.60;;;;;;5054276;28;20269;-61
2022/07/03 05:32:59;;;;;;;2.65;1.17;;;35.30;67.30;;;;;;5054812;28;20205;-60
2022/07/03 05:35:27;;;;;;;2.92;0.93;;;35.60;64.70;;;;;;5054061;28;20236;-60
2022/07/03 05:37:54;;;;;;;2.13;1.08;;;35.70;63.60;;;;;;5054195;28;20206;-60
2022/07/03 05:40:20;;;;;;;2.55;1.40;;;35.70;63.00;;;;;;5054564;28;20217;-60
2022/07/03 05:42:47;;;;;;;3.28;1.02;;;35.70;62.70;;;;;;5054483;28;20205;-60
2022/07/03 05:45:13;;;;;;;3.63;1.02;;;36.30;60.80;;;;;;5053765;28;20201;-60
2022/07/03 05:47:40;;;;;;;2.03;0.90;;;37.20;58.40;;;;;;5053732;28;20248;-60
2022/07/03 05:50:08;;;;;;;1.92;1.05;;;38.20;56.30;;;;;;5053959;28;20210;-60
2022/07/03 05:52:36;;;;;;;2.13;1.10;;;38.80;54.50;;;;;;5054083;28;20588;-60
2022/07/03 05:55:03;;;;;;;2.72;1.10;;;39.10;54.00;;;;;;5054131;28;20221;-60
2022/07/03 05:57:30;;;;;;;2.78;0.93;;;39.50;52.80;;;;;;5053504;28;20229;-61
2022/07/03 05:59:57;;;;;;;1.88;0.95;;;40.10;51.60;;;;;;5053432;28;20210;-61
2022/07/03 06:02:24;;;;;;;1.08;0.90;;;40.60;50.20;;;;;;5053065;28;20213;-61
2022/07/03 06:04:50;;;;;;;1.50;0.68;;;41.00;49.20;;;;;;5052685;28;20297;-60
2022/07/03 06:07:17;;;;;;;2.95;1.00;;;41.40;48.20;;;;;;5052651;28;20225;-61
2022/07/03 06:09:47;;;;;;;2.17;0.88;;;41.40;47.80;;;;;;5052704;28;20580;-61
2022/07/03 06:12:14;;;;;;;1.67;0.98;;;41.30;47.90;;;;;;5053595;28;20255;-61
2022/07/03 06:14:41;;;;;;;1.30;0.90;;;41.20;47.90;;;;;;5055460;28;20221;-61
2022/07/03 06:17:08;;;;;;;1.52;0.90;;;41.40;47.30;;;;;;5057569;28;20225;-64
2022/07/03 06:19:34;;;;;;;0.90;0.80;;;41.40;47.50;;;;;;5058006;28;20209;-60
2022/07/03 06:22:01;;;;;;;1.27;0.77;;;41.60;46.80;;;;;;5056447;28;20232;-60
2022/07/03 06:24:28;;;;;;;1.10;0.70;;;41.90;46.30;;;;;;5056037;28;20205;-60
2022/07/03 06:26:56;;;;;;;2.65;1.13;;;42.30;46.00;;;;;;5055803;28;20601;-60
2022/07/03 06:29:25;;;;;;;1.45;0.85;;;42.50;45.80;;;;;;5056364;28;20212;-60
2022/07/03 06:31:52;;;;;;;0.60;0.55;;;42.60;45.50;;;;;;5057631;28;20213;-65
2022/07/03 06:34:19;;;;;;;2.42;0.70;;;43.10;44.90;;;;;;5057737;28;20201;-60
2022/07/03 06:36:46;;;;;;;0.65;0.60;;;43.20;44.60;;;;;;5058650;28;20237;-65
2022/07/03 06:39:13;;;;;;;1.67;0.60;;;43.00;44.90;;;;;;5059089;28;20213;-61
2022/07/03 06:41:39;;;;;;;1.05;0.85;;;42.90;44.90;;;;;;5058748;28;20212;-66
2022/07/03 06:44:07;;;;;;;1.75;0.70;;;42.70;43.50;;;;;;5056938;28;20598;-64
2022/07/03 06:46:34;;;;;;;3.28;0.93;;;42.40;44.30;;;;;;5057687;28;20217;-66
2022/07/03 06:49:01;;;;;;;0.95;0.77;;;42.80;43.50;;;;;;5058459;28;20283;-64
2022/07/03 06:51:28;;;;;;;2.38;0.77;;;43.00;43.30;;;;;;5058484;28;20212;-63
2022/07/03 06:53:54;;;;;;;1.65;1.08;;;43.00;43.00;;;;;;5057939;28;20213;-61
2022/07/03 06:56:21;;;;;;;0.80;0.80;;;43.40;42.90;;;;;;5058499;28;20704;-59
2022/07/03 06:58:48;;;;;;;0.80;0.80;;;43.30;42.20;;;;;;5058665;28;20216;-61
2022/07/03 07:01:16;;;;;;;1.15;0.80;;;43.10;42.40;;;;;;5058973;28;20205;-61
2022/07/03 07:03:43;;;;;;;0.75;0.75;;;43.20;42.00;;;;;;5059018;28;20212;-59
2022/07/03 07:06:10;;;;;;;2.67;1.70;;;43.80;41.60;;;;;;5058523;28;20600;-61
2022/07/03 07:08:36;;;;;;;0.82;0.82;;;44.30;41.10;;;;;;5058046;28;20209;-61
2022/07/03 07:11:03;;;;;;;2.38;0.93;;;44.60;40.60;;;;;;5058286;28;20227;-59
2022/07/03 07:13:30;;;;;;;4.00;1.90;;;44.80;40.00;;;;;;5058727;28;20205;-59
2022/07/03 07:15:56;;;;;;;1.80;0.80;;;45.20;40.00;;;;;;5058620;28;20225;-60
2022/07/03 07:18:25;;;;;;;2.45;1.33;;;45.60;39.10;;;;;;5058142;28;20661;-60
2022/07/03 07:20:51;;;;;;;0.95;0.73;;;45.80;39.20;;;;;;5057853;28;20216;-60
2022/07/03 07:23:18;;;;;;;1.65;0.68;;;46.20;38.10;;;;;;5057850;28;20204;-61
2022/07/03 07:25:45;;;;;;;2.88;1.00;;;46.50;37.20;;;;;;5056717;28;20239;-61
2022/07/03 07:28:12;;;;;;;0.82;0.65;;;46.30;37.90;;;;;;5057956;28;20197;-60
2022/07/03 07:30:39;;;;;;;2.03;0.80;;;46.50;37.40;;;;;;5057026;28;20795;-61
2022/07/03 07:33:06;;;;;;;4.15;0.90;;;46.80;36.90;;;;;;5057430;28;20557;-61
2022/07/03 07:35:34;;;;;;;0.95;0.85;;;47.00;35.70;;;;;;5057749;28;20232;-62
2022/07/03 07:38:01;;;;;;;0.98;0.70;;;47.10;35.90;;;;;;5058165;28;20612;-62
2022/07/03 07:40:28;;;;;;;2.10;0.80;;;47.20;36.00;;;;;;5058241;28;20683;-63
2022/07/03 07:42:55;;;;;;;2.38;0.82;;;46.80;36.40;;;;;;5056901;28;20699;-61
2022/07/03 07:45:22;;;;;;;1.27;1.00;;;46.70;36.20;;;;;;5056462;28;20201;-62
2022/07/03 07:47:49;;;;;;;1.13;0.80;;;46.80;36.10;;;;;;5056653;28;20320;-61
2022/07/03 07:50:15;;;;;;;1.35;0.85;;;47.10;35.80;;;;;;5056367;28;20212;-61
2022/07/03 07:52:43;;;;;;;3.40;1.00;;;47.30;35.50;;;;;;5056784;28;20213;-61
2022/07/03 07:55:10;;;;;;;1.55;0.90;;;47.50;35.30;;;;;;5057537;28;20228;-62
2022/07/03 07:57:37;;;;;;;5.88;1.30;;;47.60;35.00;;;;;;5056788;28;20229;-61
2022/07/03 08:00:09;;;;;;;2.40;0.73;;;47.70;35.20;;;;;;5057137;28;20228;-61
2022/07/03 08:05:38;;;;;;;2.55;0.90;;;48.00;34.90;;;;;;5057181;28;20251;-61
2022/07/03 08:08:09;;;;;;;2.17;1.70;;;47.90;35.60;;;;;;5057310;28;20223;-61
2022/07/03 08:10:37;;;;;;;1.17;0.80;;;47.80;34.80;;;;;;5056619;28;20216;-61
2022/07/03 08:13:04;;;;;;;2.63;2.20;;;47.80;34.40;;;;;;5056692;28;20205;-61
2022/07/03 08:15:31;;;;;;;0.98;0.75;;;48.00;34.50;;;;;;5056754;28;20228;-61
2022/07/03 08:17:58;;;;;;;0.95;0.73;;;47.90;34.00;;;;;;5056651;28;20213;-61
2022/07/03 08:20:25;;;;;;;2.15;0.90;;;47.20;34.70;;;;;;5056801;28;20208;-61
2022/07/03 08:22:52;;;;;;;1.48;1.10;;;46.80;35.10;;;;;;5058783;28;20193;-61
2022/07/03 08:25:20;;;;;;;2.58;1.45;;;46.70;34.90;;;;;;5059061;28;20205;-61
2022/07/03 08:27:47;;;;;;;1.20;1.10;;;46.80;34.00;;;;;;5057585;28;20232;-61
2022/07/03 08:30:17;;;;;;;0.88;0.80;;;47.10;33.80;;;;;;5057290;28;20212;-61
2022/07/03 08:32:44;;;;;;;2.38;0.75;;;47.60;32.80;;;;;;5057551;28;20271;-61
2022/07/03 08:35:11;;;;;;;1.45;0.70;;;46.60;33.70;;;;;;5055744;28;20668;-60
2022/07/03 08:37:40;;;;;;;2.65;1.10;;;44.20;36.50;;;;;;5056660;28;20328;-61
2022/07/03 08:40:08;;;;;;;1.52;1.00;;;44.20;36.80;;;;;;5056429;28;20212;-61
2022/07/03 08:42:38;;;;;;;0.98;0.90;;;45.30;35.40;;;;;;5057063;28;20560;-61
2022/07/03 08:45:08;;;;;;;0.90;0.90;;;46.30;34.40;;;;;;5057164;28;20597;-61
2022/07/03 08:47:37;;;;;;;1.90;1.27;;;46.80;33.60;;;;;;5058805;28;20708;-64
2022/07/03 08:50:05;;;;;;;1.42;0.90;;;47.00;33.40;;;;;;5058465;28;20201;-63
2022/07/03 08:52:34;;;;;;;1.23;1.13;;;46.80;33.70;;;;;;5056492;28;20216;-62
2022/07/03 08:55:00;;;;;;;2.28;1.00;;;46.20;34.40;;;;;;5056614;28;20215;-62
2022/07/03 08:57:28;;;;;;;1.95;1.00;;;45.20;34.90;;;;;;5056044;28;20723;-62
2022/07/03 08:59:58;;;;;;;1.20;1.00;;;43.60;36.20;;;;;;5057313;28;20212;-62
2022/07/03 09:02:25;;;;;;;5.18;1.02;;;42.10;37.40;;;;;;5057515;28;20228;-62
2022/07/03 09:04:52;;;;;;;5.60;1.23;;;40.50;39.30;;;;;;5056450;28;20576;-62
2022/07/03 09:07:21;;;;;;;2.17;1.40;;;38.80;41.60;;;;;;5056117;28;20225;-62
2022/07/03 09:09:47;;;;;;;3.42;1.02;;;37.30;43.40;;;;;;5057610;28;20209;-61
2022/07/03 09:12:14;;;;;;;1.48;0.93;;;35.80;44.90;;;;;;5056453;28;20206;-63
2022/07/03 09:14:41;;;;;;;1.83;0.90;;;34.20;47.10;;;;;;5057291;28;20632;-61
2022/07/03 09:17:10;;;;;;;0.90;0.85;;;33.10;48.80;;;;;;5056473;28;20262;-61
2022/07/03 09:19:42;;;;;;;1.42;0.90;;;32.50;50.60;;;;;;5057160;28;20213;-61
2022/07/03 09:22:22;;;;;;;1.42;1.00;;;32.10;51.20;;;;;;5056946;28;20213;-61
2022/07/03 09:24:49;;;;;;;1.08;0.85;;;31.70;51.60;;;;;;5057423;28;20268;-61
2022/07/03 09:27:19;;;;;;;4.15;1.08;;;31.30;51.90;;;;;;5056496;28;20764;-61
2022/07/03 09:30:00;;;;;;;0.90;0.90;;;31.00;52.10;;;;;;5056668;28;20210;-61
2022/07/03 09:32:34;;;;;;;2.67;1.05;;;30.80;52.80;;;;;;5056561;28;20258;-61
2022/07/03 09:35:18;;;;;;;1.42;1.10;;;30.60;52.80;;;;;;5055851;28;20292;-61
2022/07/03 09:37:53;;;;;;;2.47;1.00;;;30.40;52.80;;;;;;5075767;23;20229;-54
2022/07/03 09:40:20;;;;;;;3.22;0.82;;;30.30;52.70;;;;;;5052147;28;20205;-54
2022/07/03 09:42:58;;;;;;;1.48;1.05;;;29.80;54.40;;;;;;5052229;28;20558;-54
2022/07/03 09:45:25;;;;;;;0.70;0.50;;;29.70;54.60;;;;;;5052074;28;20304;-54
2022/07/03 09:47:53;;;;;;;1.25;0.77;;;29.70;54.10;;;;;;5052078;28;20233;-54
2022/07/03 09:50:20;;;;;;;0.77;0.77;;;29.60;54.20;;;;;;5052061;28;20201;-55
2022/07/03 09:52:48;;;;;;;1.33;0.90;;;29.60;54.70;;;;;;5052194;28;20688;-54
2022/07/03 09:55:17;;;;;;;1.45;0.70;;;29.70;54.60;;;;;;5051596;28;20629;-54
2022/07/03 09:57:46;;;;;;;2.60;0.77;;;29.70;52.80;;;;;;5052018;28;20222;-57
2022/07/03 10:00:19;;;;;;;0.80;0.70;;;29.70;53.10;;;;;;5051809;28;20201;-55
2022/07/03 10:03:00;;;;;;;2.08;0.77;;;29.70;53.30;;;;;;5051966;28;20595;-54
2022/07/03 10:05:30;;;;;;;1.38;1.05;;;29.70;54.20;;;;;;5051571;28;20348;-54
2022/07/03 10:07:58;;;;;;;1.75;0.65;;;29.70;53.70;;;;;;5051822;28;20248;-54
2022/07/03 10:10:27;;;;;;;3.13;0.93;;;29.70;51.90;;;;;;5051546;28;20259;-54
2022/07/03 10:12:55;;;;;;;2.60;2.03;;;29.60;52.90;;;;;;5051795;28;20206;-54
2022/07/03 10:15:22;;;;;;;1.33;0.70;;;29.50;54.10;;;;;;5051475;28;20245;-54
2022/07/03 10:17:50;;;;;;;1.38;1.10;;;29.50;53.90;;;;;;5051431;28;20233;-54
2022/07/03 10:20:25;;;;;;;1.63;0.90;;;29.50;53.90;;;;;;5051556;28;20715;-54
2022/07/03 10:22:53;;;;;;;1.20;1.02;;;29.60;54.50;;;;;;5051818;28;20209;-54
2022/07/03 10:25:20;;;;;;;2.25;0.85;;;29.80;53.60;;;;;;5051447;28;20201;-54
2022/07/03 10:27:47;;;;;;;3.75;1.23;;;29.80;53.30;;;;;;5051777;28;20603;-54
2022/07/03 10:30:16;;;;;;;1.25;0.82;;;29.90;53.70;;;;;;5051364;28;20297;-53
2022/07/03 10:32:45;;;;;;;1.17;0.90;;;30.00;53.40;;;;;;5051973;28;20297;-53
2022/07/03 10:35:14;;;;;;;1.00;0.80;;;30.10;52.80;;;;;;5051295;28;20201;-54
2022/07/03 10:37:53;;;;;;;2.83;0.70;;;30.20;53.10;;;;;;5051106;28;20240;-54
2022/07/03 10:46:13;;;;;;;0.80;0.52;;;30.00;51.80;;;;;;5025437;28;20828;-54
2022/07/03 10:49:05;;;;;;;0.90;0.90;;;30.00;52.70;;;;;;5051239;28;20573;-54
2022/07/03 10:51:48;;;;;;;3.60;1.00;;;30.10;52.90;;;;;;5052181;28;20244;-54
2022/07/03 10:54:18;;;;;;;1.00;0.85;;;30.20;53.10;;;;;;5051199;28;20689;-54
2022/07/03 10:57:19;;;;;;;0.80;0.80;;;30.30;52.20;;;;;;5051249;28;20701;-55
2022/07/03 11:00:00;;;;;;;3.35;1.10;;;30.30;52.10;;;;;;4951542;28;20619;-55
2022/07/03 11:02:30;;;;;;;1.52;0.88;;;30.30;53.30;;;;;;5044200;28;20216;-54
2022/07/03 11:05:19;;;;;;;2.80;0.68;;;30.40;52.80;;;;;;5054954;28;20583;-55
2022/07/03 11:08:08;;;;;;;2.10;1.10;;;30.50;52.20;;;;;;5054868;28;20244;-55
2022/07/03 11:10:41;;;;;;;2.78;1.20;;;30.50;51.80;;;;;;5054985;28;20640;-54
2022/07/03 11:13:10;;;;;;;1.65;1.23;;;30.50;52.30;;;;;;5054747;28;20639;-57
2022/07/03 11:15:40;;;;;;;1.52;1.42;;;30.60;52.60;;;;;;5054703;28;20251;-56
2022/07/03 11:18:15;;;;;;;2.40;1.20;;;30.60;54.20;;;;;;5054665;28;20229;-54
2022/07/03 11:21:20;;;;;;;1.20;0.80;;;30.70;52.30;;;;;;5054644;28;20216;-54
2022/07/03 11:24:14;;;;;;;2.00;0.60;;;30.80;52.30;;;;;;5054572;28;20233;-55
2022/07/03 11:26:42;;;;;;;5.10;1.55;;;30.80;51.50;;;;;;5054276;28;20228;-55
2022/07/03 11:29:26;;;;;;;2.42;1.10;;;30.80;52.00;;;;;;5054414;28;20308;-55
2022/07/03 11:31:53;;;;;;;2.85;1.20;;;30.90;51.90;;;;;;5054595;28;20248;-55
2022/07/03 11:34:21;;;;;;;1.35;0.90;;;30.90;52.00;;;;;;5054255;28;20673;-53
2022/07/03 11:36:48;;;;;;;3.22;1.30;;;31.00;51.00;;;;;;5054279;28;20324;-54
2022/07/03 11:39:15;;;;;;;0.80;0.80;;;30.90;52.00;;;;;;5054247;28;20648;-55
2022/07/03 11:41:47;;;;;;;1.45;0.80;;;30.90;51.40;;;;;;5054380;28;20232;-54
2022/07/03 11:44:19;;;;;;;1.98;1.15;;;30.90;52.20;;;;;;5053986;28;20783;-54
2022/07/03 11:46:51;;;;;;;1.70;1.25;;;30.90;51.80;;;;;;5054282;28;20260;-54
2022/07/03 11:49:20;;;;;;;1.25;0.80;;;30.90;52.10;;;;;;5054273;28;20202;-54
2022/07/03 11:51:59;;;;;;;2.53;1.13;;;30.90;51.70;;;;;;5054062;28;20213;-56
2022/07/03 11:54:30;;;;;;;2.42;1.90;;;30.90;52.20;;;;;;5054025;28;20259;-53
2022/07/03 11:56:58;;;;;;;2.10;1.52;;;31.00;52.00;;;;;;5053901;28;20283;-53
2022/07/03 11:59:25;;;;;;;3.05;1.00;;;31.00;52.70;;;;;;5053965;28;20263;-54
2022/07/03 12:01:51;;;;;;;0.82;0.57;;;31.00;50.50;;;;;;5053941;28;20209;-55
2022/07/03 12:04:20;;;;;;;7.18;5.72;;;31.00;50.80;;;;;;5053584;28;20210;-54
2022/07/03 12:06:49;;;;;;;1.35;0.70;;;30.90;51.60;;;;;;5053989;28;20701;-57
2022/07/03 12:09:19;;;;;;;1.27;1.10;;;30.70;51.80;;;;;;5053817;28;20209;-55
2022/07/03 12:12:01;;;;;;;2.60;1.48;;;30.70;52.20;;;;;;5052279;28;20241;-54
2022/07/03 12:14:36;;;;;;;4.18;1.75;;;30.80;52.20;;;;;;5053317;28;20205;-55
2022/07/03 12:17:03;;;;;;;2.67;1.00;;;30.90;52.10;;;;;;5053231;28;20240;-55
2022/07/03 12:19:30;;;;;;;3.80;2.92;;;31.00;52.60;;;;;;5053488;28;20586;-56
2022/07/03 12:21:56;;;;;;;2.63;2.30;;;31.20;52.80;;;;;;5053729;28;20214;-54
2022/07/03 12:24:23;;;;;;;3.55;1.00;;;31.20;51.70;;;;;;5053295;28;20220;-54
2022/07/03 12:26:50;;;;;;;1.58;0.90;;;31.30;52.50;;;;;;5053363;28;20575;-54
2022/07/03 12:29:19;;;;;;;3.45;1.50;;;31.30;52.60;;;;;;5053433;28;20209;-54
2022/07/03 12:31:48;;;;;;;1.02;0.70;;;31.40;50.80;;;;;;5053615;28;20216;-54
2022/07/03 12:34:16;;;;;;;1.17;0.80;;;31.30;51.10;;;;;;5053280;28;20210;-55
2022/07/03 12:36:57;;;;;;;1.48;0.90;;;31.10;51.60;;;;;;5053160;28;20230;-54
2022/07/03 12:39:24;;;;;;;0.52;0.52;;;31.10;51.70;;;;;;5053696;28;20205;-54
2022/07/03 12:41:51;;;;;;;1.25;0.80;;;31.10;51.90;;;;;;5053239;28;20620;-55
2022/07/03 12:44:20;;;;;;;2.30;0.93;;;31.10;51.90;;;;;;5053134;28;20209;-54
2022/07/03 12:46:48;;;;;;;2.15;0.80;;;31.20;52.80;;;;;;5053007;28;20256;-54
2022/07/03 12:49:16;;;;;;;1.80;0.80;;;31.20;52.80;;;;;;5053137;28;20308;-55
2022/07/03 12:51:45;;;;;;;0.60;0.60;;;31.20;52.40;;;;;;5053146;28;20228;-56
2022/07/03 12:54:13;;;;;;;1.73;1.08;;;31.20;52.80;;;;;;5052622;28;20622;-57
2022/07/03 12:56:41;;;;;;;1.35;0.40;;;31.30;52.90;;;;;;5052690;28;20222;-54
2022/07/03 12:59:19;;;;;;;0.73;0.65;;;31.30;52.50;;;;;;5052779;28;20719;-53
2022/07/03 13:02:00;;;;;;;2.13;0.82;;;31.30;52.80;;;;;;5052838;28;20208;-53
2022/07/03 13:04:35;;;;;;;0.68;0.38;;;31.30;52.30;;;;;;5052505;28;20292;-54
2022/07/03 13:07:04;;;;;;;2.05;0.80;;;31.40;52.00;;;;;;5052630;28;20642;-55
2022/07/03 13:09:31;;;;;;;0.65;0.50;;;31.40;52.40;;;;;;5052765;28;20206;-54
2022/07/03 13:11:58;;;;;;;2.45;0.90;;;31.40;51.80;;;;;;5052709;28;20271;-52